Portada
METAR-TAF:

METAR-TAF

Aeroports :

Curaçao, Antilles Neerlandeses

latitud: 12-12N, longitud: 068-58W, altitud: 9 m

Observació

L'informe es va fer fa 2 hores i 28 minuts, a les 05:00 UTC
Vent 9 kt del Est
Temperatura 24°C
Humitat 83%
Pressió 1015 hPa
Visibilitat 10 km o més
Escasses núvols a una alçada de 1700 ft

METAR: TNCC 250500Z 09009KT 9999 FEW017 24/21 Q1015 NOSIG

Hora: 03:28 (07:28 UTC)

Pronòstic

Pronòstic vàlid del 25 a les 03 UTC al 26 a les 11 UTC
Vent 10 kt del Est
Visibilitat 10 km o més
Núvols disperses a una alçada de 1800 ft
Probabilitat 40% :
Temporalment
l' 25 a les 06 UTC al 25 a les 18 UTC
Visibilitat: 5000 m
Cel ennuvolat a una alçada de 1400 ft
xàfecs de pluja

TAF: TNCC 250335 2506/2606 09010KT 9999 SCT018 PROB40 TEMPO 2506/2518 5000 SHRA BKN014

Observacions i pronòstics meteorològics de més de 4000 aeroports (METAR i TAF).

Les estacions disponibles són els punts grocs i vermells al mapa.

Posi el ratolí al punt desitjat per veure el nom de l'estació.

Feu clic per veure les observacions i els pronòstics meteorològics.

Per canviar el mapa: feu clic els botons verds amb una creu de color negre per apropar; al botó verd amb un guió per allunyar la imatge; o en les fletxes verdes per a mapes adjacents.


METAR-TAF: